Time;durP1;ratioP1;P1;durP2;ratioP2;P2;SDS_P1;SDS_P2;PMS_P1;PMS_P2;Temp;Humidity;BMP_temperature;BMP_pressure;BME280_temperature;BME280_humidity;BME280_pressure;Samples;Min_cycle;Max_cycle;Signal;HPM_P1;HPM_P2
2023/05/10 00:00:34;;;;;;;0.73;0.73;;;20.30;69.80;;;;;;5042644;28;43459;-70
2023/05/10 00:03:04;;;;;;;0.70;0.70;;;20.30;70.00;;;;;;5027899;28;43977;-70
2023/05/10 00:05:32;;;;;;;0.80;0.80;;;20.20;70.00;;;;;;5024465;28;46059;-69
2023/05/10 00:08:00;;;;;;;0.70;0.70;;;20.20;70.20;;;;;;5035251;28;43500;-70
2023/05/10 00:10:28;;;;;;;0.63;0.63;;;20.30;70.00;;;;;;5041287;28;43511;-69
2023/05/10 00:12:55;;;;;;;0.87;0.87;;;20.40;69.90;;;;;;5023890;28;43680;-69
2023/05/10 00:15:25;;;;;;;0.70;0.70;;;20.40;69.80;;;;;;5041052;28;43616;-70
2023/05/10 00:17:53;;;;;;;0.60;0.60;;;20.40;69.70;;;;;;5038265;28;43858;-70
2023/05/10 00:20:21;;;;;;;1.40;0.80;;;20.40;69.80;;;;;;5015236;28;43418;-69
2023/05/10 00:22:48;;;;;;;0.60;0.60;;;20.40;69.80;;;;;;5027354;28;43564;-70
2023/05/10 00:25:16;;;;;;;0.70;0.70;;;20.30;69.60;;;;;;5043910;28;43785;-69
2023/05/10 00:27:44;;;;;;;0.70;0.70;;;20.30;69.60;;;;;;5042688;28;43521;-70
2023/05/10 00:30:12;;;;;;;0.63;0.63;;;20.30;69.80;;;;;;5037019;28;43359;-69
2023/05/10 00:32:43;;;;;;;0.60;0.60;;;20.30;70.10;;;;;;5024721;28;43516;-70
2023/05/10 00:35:13;;;;;;;0.60;0.60;;;20.30;70.10;;;;;;5023169;28;46086;-70
2023/05/10 00:37:42;;;;;;;0.60;0.60;;;20.30;70.00;;;;;;5017794;28;44650;-71
2023/05/10 00:40:10;;;;;;;0.67;0.67;;;20.20;69.90;;;;;;5024694;28;43384;-69
2023/05/10 00:42:38;;;;;;;0.70;0.70;;;20.20;70.00;;;;;;5046768;28;43433;-70
2023/05/10 00:45:08;;;;;;;0.80;0.80;;;20.20;70.30;;;;;;5024327;28;45564;-69
2023/05/10 00:47:36;;;;;;;0.70;0.70;;;20.20;70.30;;;;;;5027338;28;44289;-70
2023/05/10 00:50:07;;;;;;;0.60;0.60;;;20.30;70.00;;;;;;5027155;28;43377;-70
2023/05/10 00:52:35;;;;;;;0.60;0.60;;;20.40;69.50;;;;;;5047104;28;43495;-70
2023/05/10 00:55:03;;;;;;;1.50;0.83;;;20.50;69.30;;;;;;5022857;28;45911;-70
2023/05/10 00:57:32;;;;;;;0.80;0.80;;;20.50;69.20;;;;;;5037419;28;43473;-71
2023/05/10 01:00:00;;;;;;;0.60;0.60;;;20.60;69.20;;;;;;5037862;28;43439;-69
2023/05/10 01:02:30;;;;;;;0.50;0.50;;;20.50;69.20;;;;;;5046597;28;43439;-69
2023/05/10 01:04:58;;;;;;;0.90;0.90;;;20.40;69.40;;;;;;5010724;28;46008;-69
2023/05/10 01:07:27;;;;;;;4.10;0.90;;;20.30;69.60;;;;;;5038726;28;43951;-69
2023/05/10 01:09:55;;;;;;;0.63;0.63;;;20.30;69.80;;;;;;5024134;28;43444;-70
2023/05/10 01:12:26;;;;;;;0.70;0.70;;;20.30;69.80;;;;;;5013376;28;43876;-69
2023/05/10 01:14:55;;;;;;;0.60;0.60;;;20.30;69.80;;;;;;5027484;28;44800;-70
2023/05/10 01:17:23;;;;;;;0.60;0.60;;;20.20;69.90;;;;;;5037274;28;43492;-69
2023/05/10 01:19:51;;;;;;;0.80;0.80;;;20.20;70.20;;;;;;5041683;28;43512;-71
2023/05/10 01:22:32;;;;;;;0.60;0.60;;;20.20;70.20;;;;;;5046102;28;43412;-69
2023/05/10 01:25:14;;;;;;;0.63;0.63;;;20.20;70.00;;;;;;5043693;28;43920;-70
2023/05/10 01:28:09;;;;;;;0.60;0.60;;;20.20;70.10;;;;;;5014652;28;45239;-70
2023/05/10 01:30:49;;;;;;;0.60;0.60;;;20.20;70.20;;;;;;5033822;28;43384;-69
2023/05/10 01:33:19;;;;;;;0.60;0.60;;;20.20;70.40;;;;;;5024680;28;43814;-70
2023/05/10 01:35:53;;;;;;;0.70;0.70;;;20.20;70.30;;;;;;5041519;28;43596;-70
2023/05/10 01:38:23;;;;;;;0.60;0.60;;;20.30;70.00;;;;;;5044090;28;43453;-69
2023/05/10 01:40:56;;;;;;;0.50;0.50;;;20.40;69.80;;;;;;5042721;28;43813;-70
2023/05/10 01:43:26;;;;;;;0.50;0.50;;;20.40;69.60;;;;;;5025013;28;43585;-70
2023/05/10 01:45:59;;;;;;;0.77;0.60;;;20.40;69.80;;;;;;5029057;28;43946;-70
2023/05/10 01:48:29;;;;;;;0.70;0.70;;;20.40;69.80;;;;;;5021510;28;44794;-69
2023/05/10 01:50:57;;;;;;;0.77;0.77;;;20.40;69.80;;;;;;5025479;28;44068;-69
2023/05/10 01:53:25;;;;;;;0.60;0.60;;;20.40;69.60;;;;;;5044802;28;43417;-70
2023/05/10 01:55:53;;;;;;;0.60;0.60;;;20.30;69.50;;;;;;5020990;28;45686;-70
2023/05/10 01:58:22;;;;;;;0.80;0.80;;;20.30;69.80;;;;;;5024974;28;44483;-69
2023/05/10 02:00:50;;;;;;;0.70;0.70;;;20.30;70.10;;;;;;5024731;28;43381;-69
2023/05/10 02:03:19;;;;;;;0.60;0.60;;;20.30;70.10;;;;;;5038957;28;43449;-70
2023/05/10 02:05:51;;;;;;;0.70;0.70;;;20.20;69.90;;;;;;5023670;28;44144;-69
2023/05/10 02:08:22;;;;;;;0.60;0.60;;;20.20;69.90;;;;;;5023383;28;43568;-70
2023/05/10 02:10:52;;;;;;;0.60;0.60;;;20.20;70.00;;;;;;5038362;28;43958;-70
2023/05/10 02:13:20;;;;;;;0.67;0.67;;;20.20;70.30;;;;;;5019474;28;43567;-69
2023/05/10 02:15:49;;;;;;;0.83;0.83;;;20.20;70.20;;;;;;5039280;28;43835;-69
2023/05/10 02:18:17;;;;;;;0.70;0.70;;;20.30;70.00;;;;;;5022703;28;44675;-70
2023/05/10 02:20:45;;;;;;;0.80;0.80;;;20.40;69.50;;;;;;5024999;28;43402;-70
2023/05/10 02:23:15;;;;;;;1.00;1.00;;;20.50;69.40;;;;;;5011526;28;43420;-70
2023/05/10 02:25:43;;;;;;;0.67;0.67;;;20.60;69.40;;;;;;5043016;28;43616;-69
2023/05/10 02:28:11;;;;;;;0.80;0.80;;;20.50;69.10;;;;;;5026193;28;45080;-70
2023/05/10 02:30:41;;;;;;;0.90;0.90;;;20.40;69.10;;;;;;5018932;28;43471;-69
2023/05/10 02:33:08;;;;;;;0.87;0.87;;;20.40;70.10;;;;;;5034586;28;43526;-70
2023/05/10 02:35:36;;;;;;;0.90;0.90;;;20.30;69.80;;;;;;5037822;28;43759;-70
2023/05/10 02:38:05;;;;;;;1.00;0.90;;;20.30;69.80;;;;;;5011001;28;44616;-70
2023/05/10 02:40:34;;;;;;;1.00;1.00;;;20.30;69.80;;;;;;5037666;28;43387;-70
2023/05/10 02:43:02;;;;;;;0.90;0.90;;;20.30;69.80;;;;;;5023005;28;43553;-72
2023/05/10 02:45:32;;;;;;;0.90;0.90;;;20.20;69.80;;;;;;5025590;28;44724;-70
2023/05/10 02:48:02;;;;;;;1.00;1.00;;;20.20;70.10;;;;;;5036010;28;43555;-69
2023/05/10 02:50:30;;;;;;;1.00;1.00;;;20.20;70.10;;;;;;5023394;28;43501;-69
2023/05/10 02:53:01;;;;;;;1.40;1.30;;;20.20;70.00;;;;;;5039442;28;43417;-70
2023/05/10 02:55:34;;;;;;;0.90;0.90;;;20.20;70.00;;;;;;5038173;28;44006;-69
2023/05/10 02:58:02;;;;;;;1.10;1.10;;;20.20;70.00;;;;;;5020011;28;44445;-72
2023/05/10 03:00:30;;;;;;;1.30;1.20;;;20.20;70.30;;;;;;5035012;28;43981;-69
2023/05/10 03:02:58;;;;;;;1.23;1.10;;;20.20;70.30;;;;;;5036513;28;43457;-70
2023/05/10 03:05:27;;;;;;;1.20;1.20;;;20.30;70.10;;;;;;5017356;28;45722;-69
2023/05/10 03:08:00;;;;;;;1.07;1.07;;;20.40;69.70;;;;;;5024145;28;43387;-69
2023/05/10 03:10:29;;;;;;;1.20;1.20;;;20.50;69.40;;;;;;5023809;28;43409;-70
2023/05/10 03:13:06;;;;;;;1.00;1.00;;;20.50;69.20;;;;;;5023776;28;43538;-70
2023/05/10 03:15:39;;;;;;;1.10;1.10;;;20.50;69.70;;;;;;5015783;28;45866;-70
2023/05/10 03:18:08;;;;;;;1.10;1.10;;;20.50;69.10;;;;;;5022341;28;44919;-69
2023/05/10 03:20:37;;;;;;;1.50;1.10;;;20.40;69.20;;;;;;5020321;28;43406;-70
2023/05/10 03:23:08;;;;;;;1.00;1.00;;;20.30;69.70;;;;;;5026664;28;43499;-69
2023/05/10 03:25:36;;;;;;;1.67;1.07;;;20.30;69.70;;;;;;5027727;28;45850;-69
2023/05/10 03:28:07;;;;;;;1.10;1.10;;;20.30;69.70;;;;;;5019776;28;44967;-69
2023/05/10 03:30:36;;;;;;;1.10;1.10;;;20.30;69.60;;;;;;5043134;28;44169;-69
2023/05/10 03:33:07;;;;;;;1.20;1.20;;;20.20;69.60;;;;;;5034188;28;43584;-70
2023/05/10 03:35:39;;;;;;;1.10;1.10;;;20.20;70.00;;;;;;5021236;28;45743;-69
2023/05/10 03:38:07;;;;;;;1.20;1.20;;;20.20;70.00;;;;;;5023010;28;44726;-69
2023/05/10 03:40:37;;;;;;;1.10;1.10;;;20.20;70.00;;;;;;5037158;28;43477;-69
2023/05/10 03:43:05;;;;;;;1.10;1.10;;;20.20;70.00;;;;;;5042085;28;43500;-69
2023/05/10 03:45:34;;;;;;;1.20;1.20;;;20.20;70.00;;;;;;5024745;28;45972;-69
2023/05/10 03:48:02;;;;;;;1.30;1.30;;;20.20;70.20;;;;;;5034485;28;43531;-69
2023/05/10 03:50:30;;;;;;;1.27;1.27;;;20.20;70.30;;;;;;5026077;28;43821;-69
2023/05/10 03:52:59;;;;;;;1.20;1.20;;;20.20;70.10;;;;;;5015775;28;43460;-69
2023/05/10 03:55:29;;;;;;;1.23;1.23;;;20.30;69.90;;;;;;5010649;28;44086;-69
2023/05/10 03:57:57;;;;;;;1.30;1.30;;;20.40;69.50;;;;;;5021289;28;45009;-69
2023/05/10 04:00:29;;;;;;;1.50;1.50;;;20.50;69.40;;;;;;5022377;28;43448;-71
2023/05/10 04:02:59;;;;;;;1.17;1.17;;;20.50;69.20;;;;;;5025314;28;43749;-69
2023/05/10 04:05:27;;;;;;;1.27;1.27;;;20.50;69.20;;;;;;5012370;28;45726;-70
2023/05/10 04:07:55;;;;;;;1.30;1.30;;;20.40;69.10;;;;;;5021176;28;45056;-69
2023/05/10 04:10:23;;;;;;;1.20;1.20;;;20.30;69.30;;;;;;5017018;28;44004;-69
2023/05/10 04:12:51;;;;;;;1.37;1.37;;;20.30;69.80;;;;;;5040799;28;44045;-69
2023/05/10 04:15:19;;;;;;;1.13;1.13;;;20.30;69.80;;;;;;5037172;28;43591;-69
2023/05/10 04:17:47;;;;;;;1.20;1.20;;;20.30;69.80;;;;;;5021248;28;45113;-69
2023/05/10 04:20:16;;;;;;;1.30;1.30;;;20.20;69.70;;;;;;5039305;28;43352;-70
2023/05/10 04:22:44;;;;;;;1.30;1.30;;;20.20;69.80;;;;;;5029006;28;43452;-70
2023/05/10 04:25:12;;;;;;;1.50;1.40;;;20.20;70.00;;;;;;5015797;28;45883;-69
2023/05/10 04:27:43;;;;;;;1.10;1.10;;;20.20;70.10;;;;;;5038948;28;43453;-69
2023/05/10 04:30:12;;;;;;;1.20;1.20;;;20.20;70.00;;;;;;5035807;28;44084;-69
2023/05/10 04:32:40;;;;;;;1.23;1.23;;;20.20;70.00;;;;;;5041207;28;43511;-69
2023/05/10 04:35:10;;;;;;;1.30;1.30;;;20.20;70.10;;;;;;5043641;28;43587;-69
2023/05/10 04:37:40;;;;;;;1.27;1.27;;;20.10;70.20;;;;;;5036744;28;43981;-69
2023/05/10 04:40:09;;;;;;;1.50;1.50;;;20.20;71.00;;;;;;5044717;28;43447;-69
2023/05/10 04:42:37;;;;;;;1.40;1.40;;;20.30;70.00;;;;;;5045896;28;43456;-69
2023/05/10 04:45:06;;;;;;;1.20;1.20;;;20.40;69.60;;;;;;5033341;28;43853;-69
2023/05/10 04:47:34;;;;;;;1.23;1.23;;;20.50;69.30;;;;;;5038677;28;43396;-69
2023/05/10 04:50:02;;;;;;;1.37;1.37;;;20.60;69.20;;;;;;5039547;28;43516;-70
2023/05/10 04:52:30;;;;;;;1.20;1.20;;;20.50;69.00;;;;;;5031431;28;43479;-69
2023/05/10 04:54:59;;;;;;;1.23;1.23;;;20.50;69.20;;;;;;5043996;28;43860;-68
2023/05/10 04:57:29;;;;;;;1.03;1.03;;;20.40;69.20;;;;;;5000716;28;44451;-68
2023/05/10 04:59:58;;;;;;;1.10;1.10;;;20.30;70.30;;;;;;5028400;28;43487;-69
2023/05/10 05:02:26;;;;;;;1.30;1.30;;;20.30;69.70;;;;;;5031563;28;43461;-69
2023/05/10 05:04:54;;;;;;;1.10;1.10;;;20.30;69.70;;;;;;5029153;28;43871;-69
2023/05/10 05:07:22;;;;;;;1.13;1.13;;;20.30;69.80;;;;;;5025441;28;43433;-69
2023/05/10 05:09:50;;;;;;;1.20;1.20;;;20.20;69.80;;;;;;5030523;28;43478;-69
2023/05/10 05:12:20;;;;;;;1.23;1.23;;;20.20;70.00;;;;;;5029129;28;43534;-70
2023/05/10 05:14:48;;;;;;;1.10;1.10;;;20.20;70.00;;;;;;5037343;28;43972;-69
2023/05/10 05:17:16;;;;;;;1.10;1.10;;;20.20;70.00;;;;;;5044191;28;43480;-70
2023/05/10 05:19:44;;;;;;;1.23;1.23;;;20.20;70.00;;;;;;5040329;28;43386;-69
2023/05/10 05:22:12;;;;;;;1.40;1.40;;;20.20;70.00;;;;;;5025246;28;43504;-69
2023/05/10 05:24:40;;;;;;;1.23;1.23;;;20.20;70.10;;;;;;5042895;28;43740;-69
2023/05/10 05:27:07;;;;;;;1.30;1.30;;;20.20;70.10;;;;;;5039520;28;43476;-70
2023/05/10 05:29:37;;;;;;;1.30;1.30;;;20.20;69.90;;;;;;5044403;28;43507;-69
2023/05/10 05:32:08;;;;;;;1.20;1.20;;;20.40;69.60;;;;;;5039790;28;43599;-69
2023/05/10 05:34:36;;;;;;;1.00;1.00;;;20.50;69.20;;;;;;5038574;28;43927;-70
2023/05/10 05:37:04;;;;;;;1.20;1.20;;;20.50;69.00;;;;;;5040345;28;43550;-70
2023/05/10 05:39:32;;;;;;;1.30;1.30;;;20.60;68.90;;;;;;5039039;28;44486;-71
2023/05/10 05:42:00;;;;;;;1.03;1.03;;;20.50;68.80;;;;;;5041561;28;43360;-69
2023/05/10 05:44:28;;;;;;;1.23;1.23;;;20.40;69.00;;;;;;5045728;28;43868;-69
2023/05/10 05:46:58;;;;;;;1.20;1.20;;;20.30;69.30;;;;;;5040091;28;43418;-70
2023/05/10 05:49:25;;;;;;;1.40;1.40;;;20.30;69.60;;;;;;5039188;28;43477;-69
2023/05/10 05:51:55;;;;;;;1.37;1.23;;;20.30;69.70;;;;;;5041755;28;43444;-70
2023/05/10 05:54:23;;;;;;;1.20;1.20;;;20.30;69.70;;;;;;5039205;28;43944;-70
2023/05/10 05:56:51;;;;;;;1.23;1.23;;;20.20;69.60;;;;;;5040323;28;43561;-70
2023/05/10 05:59:19;;;;;;;1.10;1.10;;;20.20;69.80;;;;;;5032228;28;43392;-70
2023/05/10 06:01:47;;;;;;;1.10;1.10;;;20.20;70.00;;;;;;5042423;28;43745;-70
2023/05/10 06:04:19;;;;;;;1.20;1.20;;;20.20;70.00;;;;;;5038736;28;44935;-70
2023/05/10 06:06:47;;;;;;;1.03;1.03;;;20.20;69.90;;;;;;5039201;28;43407;-70
2023/05/10 06:09:15;;;;;;;1.10;1.10;;;20.20;69.90;;;;;;5040293;28;43423;-70
2023/05/10 06:11:46;;;;;;;1.07;1.07;;;20.20;70.10;;;;;;5041229;28;43511;-68
2023/05/10 06:14:14;;;;;;;1.50;1.50;;;20.20;70.00;;;;;;5044946;28;43846;-69
2023/05/10 06:16:42;;;;;;;1.10;1.10;;;20.20;70.00;;;;;;5041473;28;43386;-69
2023/05/10 06:19:10;;;;;;;1.30;1.30;;;20.40;69.70;;;;;;5041288;28;43460;-69
2023/05/10 06:21:39;;;;;;;1.10;1.10;;;20.40;69.10;;;;;;5038284;28;43448;-69
2023/05/10 06:24:07;;;;;;;1.20;1.20;;;20.50;69.00;;;;;;5040176;28;43854;-69
2023/05/10 06:26:35;;;;;;;1.17;1.13;;;20.50;68.90;;;;;;5028140;28;44661;-69
2023/05/10 06:29:03;;;;;;;1.10;1.10;;;20.50;68.90;;;;;;5024979;28;43409;-70
2023/05/10 06:31:31;;;;;;;1.10;1.10;;;20.40;69.00;;;;;;5025222;28;43937;-70
2023/05/10 06:33:59;;;;;;;1.13;1.13;;;20.30;69.20;;;;;;5041623;28;43770;-69
2023/05/10 06:36:27;;;;;;;1.17;1.17;;;20.30;69.50;;;;;;5040175;28;44101;-69
2023/05/10 06:38:56;;;;;;;1.23;1.23;;;20.30;69.60;;;;;;5041171;28;43392;-70
2023/05/10 06:41:24;;;;;;;1.03;1.03;;;20.30;69.60;;;;;;5029016;28;43487;-69
2023/05/10 06:43:52;;;;;;;1.20;1.20;;;20.20;69.60;;;;;;5040117;28;43962;-69
2023/05/10 06:46:20;;;;;;;1.13;1.13;;;20.20;69.70;;;;;;5024903;28;45557;-69
2023/05/10 06:48:48;;;;;;;1.10;1.10;;;20.20;69.70;;;;;;5041885;28;43444;-69
2023/05/10 06:51:17;;;;;;;1.10;1.10;;;20.20;69.80;;;;;;5039993;28;43488;-69
2023/05/10 06:53:45;;;;;;;0.93;0.93;;;20.20;69.80;;;;;;5035322;28;43608;-70
2023/05/10 06:56:14;;;;;;;1.00;1.00;;;20.20;69.80;;;;;;5039717;28;43312;-69
2023/05/10 06:58:42;;;;;;;1.07;1.07;;;20.20;69.90;;;;;;5040245;28;43400;-69
2023/05/10 07:01:10;;;;;;;1.00;1.00;;;20.20;69.90;;;;;;5034684;28;43526;-69
2023/05/10 07:03:38;;;;;;;1.00;1.00;;;20.20;69.90;;;;;;5034324;28;43909;-69
2023/05/10 07:06:07;;;;;;;1.10;1.10;;;20.20;69.70;;;;;;5036279;28;43521;-69
2023/05/10 07:08:45;;;;;;;1.00;1.00;;;20.30;69.20;;;;;;5038385;28;43468;-69
2023/05/10 07:11:14;;;;;;;0.90;0.90;;;20.40;69.10;;;;;;5045476;28;43392;-69
2023/05/10 07:13:44;;;;;;;1.00;1.00;;;20.40;69.00;;;;;;5037439;28;43904;-69
2023/05/10 07:16:12;;;;;;;1.10;1.10;;;20.30;69.10;;;;;;5020682;28;44629;-69
2023/05/10 07:18:40;;;;;;;0.90;0.90;;;20.30;69.10;;;;;;5035338;28;43505;-69
2023/05/10 07:21:08;;;;;;;1.00;1.00;;;20.30;69.10;;;;;;5043083;28;43408;-69
2023/05/10 07:23:36;;;;;;;0.97;0.97;;;20.30;69.00;;;;;;5041416;28;43604;-69
2023/05/10 07:26:04;;;;;;;1.10;1.10;;;20.30;69.10;;;;;;5021627;28;45088;-69
2023/05/10 07:28:33;;;;;;;1.00;1.00;;;20.20;69.30;;;;;;5040517;28;43438;-69
2023/05/10 07:31:01;;;;;;;1.13;1.13;;;20.20;69.50;;;;;;5043257;28;44000;-71
2023/05/10 07:33:29;;;;;;;0.93;0.93;;;20.20;69.50;;;;;;5029867;28;43775;-68
2023/05/10 07:35:57;;;;;;;1.00;1.00;;;20.20;69.30;;;;;;5043628;28;43468;-70
2023/05/10 07:38:28;;;;;;;1.03;1.03;;;20.10;69.30;;;;;;5017643;28;43432;-69
2023/05/10 07:40:56;;;;;;;1.10;1.10;;;20.10;69.60;;;;;;5042861;28;43486;-70
2023/05/10 07:43:24;;;;;;;0.90;0.90;;;20.10;69.70;;;;;;5037330;28;43797;-70
2023/05/10 07:45:53;;;;;;;0.90;0.90;;;20.20;69.60;;;;;;5029405;28;43441;-70
2023/05/10 07:48:23;;;;;;;0.93;0.93;;;20.30;69.30;;;;;;5040365;28;43515;-70
2023/05/10 07:50:51;;;;;;;0.90;0.90;;;20.30;69.20;;;;;;5039918;28;44006;-69
2023/05/10 07:53:19;;;;;;;0.93;0.93;;;20.30;69.00;;;;;;5041386;28;44060;-70
2023/05/10 07:55:54;;;;;;;0.83;0.83;;;20.20;69.30;;;;;;5042556;28;43459;-70
2023/05/10 07:58:22;;;;;;;1.00;1.00;;;20.20;69.30;;;;;;5040055;28;43437;-69
2023/05/10 08:00:50;;;;;;;1.00;1.00;;;20.20;69.10;;;;;;5039384;28;43403;-70
2023/05/10 08:03:19;;;;;;;0.80;0.80;;;20.20;69.00;;;;;;5042793;28;43802;-70
2023/05/10 08:05:47;;;;;;;0.90;0.90;;;20.20;69.10;;;;;;5045424;28;43501;-69
2023/05/10 08:08:15;;;;;;;1.00;1.00;;;20.20;69.50;;;;;;5034401;28;44009;-70
2023/05/10 08:10:43;;;;;;;0.90;0.90;;;20.10;69.50;;;;;;5039657;28;43847;-70
2023/05/10 08:13:11;;;;;;;0.83;0.83;;;20.20;69.40;;;;;;5041155;28;44010;-69
2023/05/10 08:15:39;;;;;;;0.93;0.93;;;20.30;69.30;;;;;;5037141;28;43437;-70
2023/05/10 08:18:07;;;;;;;1.00;1.00;;;20.30;69.10;;;;;;5041227;28;43377;-69
2023/05/10 08:20:36;;;;;;;0.87;0.87;;;20.30;69.10;;;;;;5043393;28;43961;-68
2023/05/10 08:23:04;;;;;;;0.80;0.80;;;20.20;69.20;;;;;;5035156;28;44025;-71
2023/05/10 08:25:32;;;;;;;0.87;0.87;;;20.20;69.10;;;;;;5038966;28;43449;-72
2023/05/10 08:28:00;;;;;;;0.90;0.90;;;20.20;68.90;;;;;;5040319;28;43489;-70
2023/05/10 08:30:28;;;;;;;0.90;0.90;;;20.20;69.00;;;;;;5045024;28;43495;-70
2023/05/10 08:32:56;;;;;;;0.70;0.70;;;20.20;69.30;;;;;;5038928;28;43594;-69
2023/05/10 08:35:25;;;;;;;0.77;0.77;;;20.10;69.30;;;;;;5026291;28;45359;-69
2023/05/10 08:37:54;;;;;;;0.90;0.90;;;20.10;69.30;;;;;;5034282;28;43501;-71
2023/05/10 08:40:22;;;;;;;0.90;0.90;;;20.10;69.10;;;;;;5029369;28;43435;-69
2023/05/10 08:42:56;;;;;;;0.83;0.83;;;20.10;69.20;;;;;;5041944;28;43784;-70
2023/05/10 08:45:24;;;;;;;0.70;0.70;;;20.10;69.30;;;;;;5038315;28;43546;-70
2023/05/10 08:47:52;;;;;;;0.70;0.70;;;20.10;69.50;;;;;;5043337;28;43397;-70
2023/05/10 08:50:21;;;;;;;0.80;0.80;;;20.10;69.50;;;;;;5025875;28;43541;-70
2023/05/10 08:52:53;;;;;;;0.80;0.80;;;20.20;69.20;;;;;;5038939;28;43600;-70
2023/05/10 08:55:23;;;;;;;0.70;0.70;;;20.20;69.00;;;;;;5020193;28;43453;-70
2023/05/10 08:57:51;;;;;;;0.90;0.90;;;20.30;68.90;;;;;;5044491;28;43732;-69
2023/05/10 09:00:19;;;;;;;0.83;0.83;;;20.20;69.00;;;;;;5041496;28;43447;-69
2023/05/10 09:02:50;;;;;;;0.70;0.70;;;20.20;69.00;;;;;;5042166;28;43620;-69
2023/05/10 09:05:18;;;;;;;0.73;0.73;;;20.20;68.90;;;;;;5040831;28;43524;-70
2023/05/10 09:07:46;;;;;;;0.90;0.90;;;20.20;68.90;;;;;;5044228;28;44515;-70
2023/05/10 09:10:16;;;;;;;0.90;0.90;;;20.20;68.80;;;;;;5022955;28;43517;-70
2023/05/10 09:12:45;;;;;;;0.90;0.90;;;20.10;69.00;;;;;;5035671;28;43925;-69
2023/05/10 09:15:14;;;;;;;1.00;1.00;;;20.10;69.10;;;;;;5040726;28;43827;-69
2023/05/10 09:17:42;;;;;;;0.70;0.70;;;20.10;69.00;;;;;;5026019;28;43442;-69
2023/05/10 09:20:11;;;;;;;0.90;0.90;;;20.10;69.00;;;;;;5046094;28;43381;-70
2023/05/10 09:22:39;;;;;;;0.87;0.87;;;20.10;69.00;;;;;;5043374;28;43829;-69
2023/05/10 09:25:08;;;;;;;1.07;1.07;;;20.00;69.10;;;;;;5037133;28;43395;-70
2023/05/10 09:27:38;;;;;;;1.03;1.03;;;20.10;69.30;;;;;;5021800;28;43439;-70
2023/05/10 09:30:07;;;;;;;0.73;0.73;;;20.20;69.30;;;;;;5043746;28;43555;-69
2023/05/10 09:32:39;;;;;;;0.90;0.90;;;20.30;68.90;;;;;;5042044;28;44052;-70
2023/05/10 09:35:09;;;;;;;1.10;1.10;;;20.30;68.60;;;;;;5039423;28;43904;-69
2023/05/10 09:37:36;;;;;;;1.10;1.10;;;20.40;68.50;;;;;;5026435;28;43429;-69
2023/05/10 09:40:09;;;;;;;0.77;0.77;;;20.40;68.30;;;;;;5035996;28;43523;-70
2023/05/10 09:42:41;;;;;;;0.70;0.70;;;20.30;68.50;;;;;;5021616;28;46159;-70
2023/05/10 09:45:10;;;;;;;0.70;0.70;;;20.20;68.50;;;;;;5038414;28;43433;-69
2023/05/10 09:47:38;;;;;;;0.80;0.80;;;20.20;68.80;;;;;;5012162;28;43402;-69
2023/05/10 09:50:12;;;;;;;1.00;1.00;;;20.20;69.00;;;;;;5034044;28;43449;-69
2023/05/10 09:52:50;;;;;;;0.90;0.87;;;20.20;69.00;;;;;;5040167;28;43795;-69
2023/05/10 09:55:19;;;;;;;1.00;1.00;;;20.10;69.10;;;;;;5044973;28;44268;-70
2023/05/10 09:57:49;;;;;;;0.90;0.90;;;20.10;69.10;;;;;;5041204;28;43500;-70
2023/05/10 10:00:20;;;;;;;1.00;1.00;;;20.10;69.10;;;;;;5028717;28;43933;-70
2023/05/10 10:02:49;;;;;;;0.90;0.90;;;20.10;69.10;;;;;;5038816;28;43518;-70
2023/05/10 10:05:18;;;;;;;1.33;1.07;;;20.10;69.10;;;;;;5041159;28;43365;-69
2023/05/10 10:07:46;;;;;;;0.80;0.80;;;20.10;69.20;;;;;;5036472;28;44079;-70
2023/05/10 10:10:14;;;;;;;0.70;0.70;;;20.10;69.30;;;;;;5044107;28;43409;-70
2023/05/10 10:12:42;;;;;;;0.90;0.90;;;20.00;69.20;;;;;;5025326;28;46205;-69
2023/05/10 10:15:12;;;;;;;1.33;0.80;;;20.00;69.10;;;;;;5040233;28;43488;-70
2023/05/10 10:17:43;;;;;;;1.10;1.10;;;20.10;69.10;;;;;;5041208;28;43452;-69
2023/05/10 10:20:11;;;;;;;0.77;0.77;;;20.20;68.80;;;;;;5040328;28;43452;-70
2023/05/10 10:22:39;;;;;;;0.90;0.90;;;20.40;68.70;;;;;;5021563;28;46077;-70
2023/05/10 10:25:08;;;;;;;0.80;0.80;;;20.40;68.40;;;;;;5042311;28;43502;-70
2023/05/10 10:27:42;;;;;;;0.70;0.70;;;20.40;68.20;;;;;;5041055;28;43439;-70
2023/05/10 10:30:17;;;;;;;0.70;0.70;;;20.30;68.30;;;;;;5024215;28;43512;-69
2023/05/10 10:33:06;;;;;;;0.80;0.80;;;20.30;68.50;;;;;;5038764;28;43890;-70
2023/05/10 10:35:47;;;;;;;0.90;0.90;;;20.20;68.60;;;;;;5034228;28;43819;-69
2023/05/10 10:38:15;;;;;;;0.80;0.80;;;20.20;68.70;;;;;;5035099;28;43440;-69
2023/05/10 10:40:43;;;;;;;0.80;0.80;;;20.20;68.70;;;;;;5035063;28;44063;-69
2023/05/10 10:43:23;;;;;;;0.80;0.80;;;20.20;68.80;;;;;;5040177;28;43965;-69
2023/05/10 10:46:13;;;;;;;1.07;1.07;;;20.20;68.90;;;;;;5022639;28;44991;-70
2023/05/10 10:48:41;;;;;;;0.80;0.80;;;20.10;68.90;;;;;;5022469;28;43418;-69
2023/05/10 10:51:09;;;;;;;0.90;0.90;;;20.10;68.80;;;;;;5046192;28;43532;-69
2023/05/10 10:53:40;;;;;;;0.80;0.80;;;20.10;68.80;;;;;;5039168;28;43831;-70
2023/05/10 10:56:09;;;;;;;0.73;0.73;;;20.10;68.90;;;;;;5040947;28;43579;-70
2023/05/10 10:58:37;;;;;;;0.87;0.87;;;20.10;69.00;;;;;;5037284;28;43511;-70
2023/05/10 11:01:14;;;;;;;0.90;0.90;;;20.10;69.00;;;;;;5024202;28;43696;-70
2023/05/10 11:03:59;;;;;;;0.80;0.80;;;20.10;69.00;;;;;;5018086;28;47087;-69
2023/05/10 11:06:31;;;;;;;0.83;0.83;;;20.20;69.00;;;;;;5019786;28;44900;-70
2023/05/10 11:08:59;;;;;;;0.80;0.80;;;20.20;68.60;;;;;;5041260;28;43426;-70
2023/05/10 11:11:27;;;;;;;0.90;0.90;;;20.40;68.30;;;;;;5041170;28;43448;-70
2023/05/10 11:13:55;;;;;;;0.90;0.90;;;20.40;68.10;;;;;;5039271;28;45057;-69
2023/05/10 11:16:26;;;;;;;0.73;0.73;;;20.50;68.00;;;;;;5046427;28;43845;-70
2023/05/10 11:19:04;;;;;;;1.00;0.90;;;20.40;67.90;;;;;;5033213;28;44166;-70
2023/05/10 11:21:32;;;;;;;0.87;0.87;;;20.40;68.20;;;;;;5042271;28;43364;-71
2023/05/10 11:24:05;;;;;;;0.80;0.80;;;20.30;68.40;;;;;;5043280;28;45233;-70
2023/05/10 11:26:34;;;;;;;0.80;0.80;;;20.20;68.50;;;;;;5037680;28;43844;-70
2023/05/10 11:29:04;;;;;;;0.77;0.77;;;20.20;68.50;;;;;;5039791;28;43380;-71
2023/05/10 11:31:33;;;;;;;0.80;0.80;;;20.20;68.50;;;;;;5018420;28;43473;-71
2023/05/10 11:34:02;;;;;;;0.70;0.70;;;20.10;68.40;;;;;;5035615;28;43834;-70
2023/05/10 11:36:33;;;;;;;0.80;0.80;;;20.10;68.50;;;;;;5021999;28;44667;-70
2023/05/10 11:39:01;;;;;;;0.73;0.73;;;20.10;68.40;;;;;;5040934;28;44034;-69
2023/05/10 11:41:30;;;;;;;0.70;0.70;;;20.10;68.50;;;;;;5045209;28;43496;-69
2023/05/10 11:43:58;;;;;;;0.80;0.80;;;20.10;68.50;;;;;;5043856;28;43950;-69
2023/05/10 11:46:28;;;;;;;0.70;0.70;;;20.00;68.50;;;;;;5029037;28;43445;-69
2023/05/10 11:49:00;;;;;;;0.80;0.80;;;20.00;68.60;;;;;;5024921;28;43424;-68
2023/05/10 11:51:29;;;;;;;0.70;0.70;;;20.00;68.50;;;;;;5039120;28;43444;-69
2023/05/10 11:53:57;;;;;;;0.90;0.90;;;20.00;68.90;;;;;;5034907;28;43854;-69
2023/05/10 11:56:26;;;;;;;2.00;1.00;;;20.20;68.30;;;;;;5040960;28;43517;-69
2023/05/10 11:58:57;;;;;;;0.80;0.80;;;20.20;67.90;;;;;;5041646;28;43503;-69
2023/05/10 12:01:25;;;;;;;0.90;0.80;;;20.20;67.80;;;;;;5038471;28;43413;-70
2023/05/10 12:03:54;;;;;;;0.60;0.60;;;20.20;67.80;;;;;;5036637;28;43596;-69
2023/05/10 12:06:27;;;;;;;0.60;0.60;;;20.20;67.80;;;;;;5043486;28;43421;-69
2023/05/10 12:08:55;;;;;;;0.80;0.80;;;20.20;67.90;;;;;;5043225;28;43467;-69
2023/05/10 12:11:25;;;;;;;0.60;0.60;;;20.20;67.80;;;;;;5038141;28;43328;-69
2023/05/10 12:13:53;;;;;;;1.13;0.77;;;20.20;67.80;;;;;;5035695;28;43933;-69
2023/05/10 12:16:22;;;;;;;0.90;0.90;;;20.10;67.90;;;;;;5040474;28;43410;-69
2023/05/10 12:18:51;;;;;;;0.70;0.70;;;20.10;68.10;;;;;;5027062;28;43425;-69
2023/05/10 12:21:19;;;;;;;0.90;0.90;;;20.10;68.00;;;;;;5043906;28;43468;-69
2023/05/10 12:23:51;;;;;;;0.57;0.57;;;20.10;68.00;;;;;;5039147;28;43926;-68
2023/05/10 12:26:19;;;;;;;0.70;0.70;;;20.10;67.90;;;;;;5043604;28;44240;-68
2023/05/10 12:28:47;;;;;;;0.70;0.70;;;20.00;67.90;;;;;;5037064;28;43436;-69
2023/05/10 12:31:15;;;;;;;0.73;0.73;;;20.00;67.70;;;;;;5023874;28;43571;-69
2023/05/10 12:33:44;;;;;;;0.60;0.60;;;20.00;67.90;;;;;;5026739;28;45624;-68
2023/05/10 12:36:12;;;;;;;0.70;0.70;;;20.00;67.70;;;;;;5037945;28;43434;-70
2023/05/10 12:38:42;;;;;;;1.80;1.03;;;20.00;67.80;;;;;;5026331;28;43427;-69
2023/05/10 12:41:13;;;;;;;0.60;0.60;;;20.00;67.80;;;;;;5040867;28;43450;-68
2023/05/10 12:43:41;;;;;;;0.70;0.70;;;20.00;67.50;;;;;;5044475;28;43699;-69
2023/05/10 12:46:09;;;;;;;0.77;0.77;;;20.00;67.40;;;;;;5043900;28;43427;-69
2023/05/10 12:48:37;;;;;;;0.60;0.60;;;20.10;67.10;;;;;;5021244;28;43468;-69
2023/05/10 12:51:09;;;;;;;0.73;0.73;;;20.20;66.00;;;;;;5036966;28;43457;-69
2023/05/10 12:53:36;;;;;;;0.77;0.77;;;20.40;65.80;;;;;;5023644;28;46323;-69
2023/05/10 12:56:05;;;;;;;0.60;0.60;;;20.30;65.60;;;;;;5041317;28;43891;-68
2023/05/10 12:58:35;;;;;;;0.70;0.70;;;20.40;66.00;;;;;;5037192;28;43412;-68